Time;durP1;ratioP1;P1;durP2;ratioP2;P2;SDS_P1;SDS_P2;PMS_P1;PMS_P2;Temp;Humidity;BMP_temperature;BMP_pressure;BME280_temperature;BME280_humidity;BME280_pressure;Samples;Min_cycle;Max_cycle;Signal;HPM_P1;HPM_P2
2022/07/06 00:00:21;;;;;;;0.60;0.60;;;;;;;25.53;58.54;95007.78;5039805;28;20260;-64
2022/07/06 00:02:47;;;;;;;0.60;0.60;;;;;;;25.54;58.06;95023.53;5023791;28;20193;-63
2022/07/06 00:05:14;;;;;;;0.43;0.43;;;;;;;25.52;58.20;95019.63;5045906;28;20580;-64
2022/07/06 00:07:41;;;;;;;0.83;0.70;;;;;;;25.55;58.06;95021.59;5035518;28;20198;-64
2022/07/06 00:10:08;;;;;;;1.13;1.03;;;;;;;25.57;58.10;95016.66;5030580;28;20613;-63
2022/07/06 00:12:35;;;;;;;0.50;0.50;;;;;;;25.75;57.63;95028.59;5034767;28;20198;-63
2022/07/06 00:15:02;;;;;;;0.63;0.63;;;;;;;25.74;57.81;95040.47;5027053;28;20197;-63
2022/07/06 00:17:29;;;;;;;0.83;0.83;;;;;;;25.54;58.45;95046.88;5051397;28;20707;-64
2022/07/06 00:19:56;;;;;;;0.70;0.50;;;;;;;25.68;58.22;95039.19;5023917;28;20196;-63
2022/07/06 00:22:22;;;;;;;0.63;0.63;;;;;;;25.42;58.65;95038.94;5027620;28;20301;-63
2022/07/06 00:24:49;;;;;;;1.00;0.87;;;;;;;25.86;57.21;95043.06;5046518;28;20638;-63
2022/07/06 00:27:16;;;;;;;1.63;1.13;;;;;;;25.85;57.02;95054.94;5030823;28;20218;-64
2022/07/06 00:29:43;;;;;;;0.50;0.50;;;;;;;26.09;56.40;95057.47;5025412;28;20266;-63
2022/07/06 00:32:11;;;;;;;9.53;0.80;;;;;;;25.86;57.23;95057.28;5020056;28;20201;-63
2022/07/06 00:34:41;;;;;;;1.97;1.30;;;;;;;25.88;56.61;95059.59;5045245;28;20201;-63
2022/07/06 00:37:09;;;;;;;1.63;1.30;;;;;;;25.88;56.90;95059.59;5038512;28;20232;-63
2022/07/06 00:39:36;;;;;;;0.40;0.40;;;;;;;25.85;56.44;95049.56;5021884;28;20206;-64
2022/07/06 00:42:03;;;;;;;1.00;1.00;;;;;;;25.45;57.90;95057.81;5023695;28;20818;-63
2022/07/06 00:44:32;;;;;;;9.97;0.73;;;;;;;25.47;57.08;95060.13;5038926;28;20205;-65
2022/07/06 00:46:59;;;;;;;0.87;0.87;;;;;;;25.02;58.90;95065.81;5040000;28;20201;-63
2022/07/06 00:52:12;;;;;;;1.10;0.50;;;;;;;25.33;57.48;95054.38;5039599;28;20185;-64
2022/07/06 00:54:41;;;;;;;2.30;1.43;;;;;;;24.63;60.26;95064.69;5032768;28;20825;-64
2022/07/06 00:57:09;;;;;;;1.40;1.30;;;;;;;24.71;60.45;95066.47;5025313;28;20228;-64
2022/07/06 00:59:36;;;;;;;2.00;1.10;;;;;;;24.91;59.32;95065.50;5050725;28;20192;-64
2022/07/06 01:02:03;;;;;;;1.00;1.00;;;;;;;24.96;58.88;95046.50;5044358;28;20189;-64
2022/07/06 01:04:30;;;;;;;0.30;0.30;;;;;;;25.40;58.20;95044.63;5041326;28;20196;-63
2022/07/06 01:06:57;;;;;;;0.93;0.93;;;;;;;25.49;57.89;95025.69;5050300;28;20204;-63
2022/07/06 01:09:23;;;;;;;0.57;0.57;;;;;;;25.73;57.54;95017.47;5022772;28;20188;-63
2022/07/06 01:11:52;;;;;;;0.30;0.30;;;;;;;25.95;56.59;95014.91;5041147;28;20576;-65
2022/07/06 01:14:20;;;;;;;1.47;1.03;;;;;;;25.85;56.88;95022.72;5044639;28;20196;-64
2022/07/06 01:16:47;;;;;;;1.30;0.80;;;;;;;25.70;57.34;95010.09;5034395;28;20221;-64
2022/07/06 01:19:14;;;;;;;0.93;0.83;;;;;;;26.00;56.81;95019.25;5023560;28;20252;-63
2022/07/06 01:21:41;;;;;;;0.80;0.80;;;;;;;25.74;57.29;95016.31;5050264;28;20279;-63
2022/07/06 01:24:08;;;;;;;0.63;0.63;;;;;;;25.77;57.15;95021.00;5037841;28;20292;-64
2022/07/06 01:26:35;;;;;;;0.30;0.30;;;;;;;25.71;57.15;95015.09;5046971;28;20297;-64
2022/07/06 01:29:02;;;;;;;5.60;1.20;;;;;;;25.71;57.45;95008.97;5036139;28;20194;-64
2022/07/06 01:31:29;;;;;;;6.30;1.40;;;;;;;25.67;57.39;95016.16;5033575;28;20212;-63
2022/07/06 01:33:58;;;;;;;3.87;0.87;;;;;;;25.64;56.95;95016.84;5045092;28;20937;-63
2022/07/06 01:36:25;;;;;;;3.00;1.40;;;;;;;25.60;57.13;95006.03;5039667;28;20716;-63
2022/07/06 01:38:54;;;;;;;2.40;1.33;;;;;;;25.57;56.95;95003.25;5021844;28;20192;-64
2022/07/06 01:41:21;;;;;;;1.47;1.07;;;;;;;25.42;57.34;95004.81;5049874;28;20203;-64
2022/07/06 01:43:48;;;;;;;1.47;1.37;;;;;;;25.59;56.68;95009.06;5032661;28;20224;-64
2022/07/06 01:46:16;;;;;;;5.20;2.10;;;;;;;25.32;57.65;95009.88;5036426;28;20299;-64
2022/07/06 01:48:43;;;;;;;0.37;0.37;;;;;;;25.31;57.72;95008.34;5047769;28;20204;-64
2022/07/06 01:51:11;;;;;;;0.77;0.77;;;;;;;25.19;57.79;95011.88;5049336;28;20184;-65
2022/07/06 01:53:39;;;;;;;1.47;1.37;;;;;;;25.39;57.24;95015.47;5048277;28;20200;-65
2022/07/06 01:56:08;;;;;;;6.90;2.30;;;;;;;25.56;56.93;95020.50;5022170;28;20202;-65
2022/07/06 01:58:35;;;;;;;0.93;0.93;;;;;;;25.25;57.70;95026.59;5043876;28;20209;-63
2022/07/06 02:01:11;;;;;;;1.53;1.37;;;;;;;24.79;59.87;95029.94;5041675;28;20208;-64
2022/07/06 02:03:39;;;;;;;1.40;1.30;;;;;;;24.80;59.48;95029.59;5042946;28;20204;-64
2022/07/06 02:06:06;;;;;;;1.27;1.17;;;;;;;24.30;60.93;95037.31;5039395;28;20201;-63
2022/07/06 02:08:34;;;;;;;0.63;0.63;;;;;;;24.15;61.08;95037.22;5027851;28;20577;-65
2022/07/06 02:11:03;;;;;;;1.07;1.00;;;;;;;24.13;61.78;95037.56;5023824;28;20201;-64
2022/07/06 02:13:30;;;;;;;0.47;0.47;;;;;;;24.56;59.76;95036.91;5026418;28;20219;-65
2022/07/06 02:16:00;;;;;;;0.30;0.30;;;;;;;24.76;58.50;95042.09;5047829;28;20278;-64
2022/07/06 02:18:27;;;;;;;1.17;1.07;;;;;;;25.15;57.31;95031.66;5047852;28;20297;-64
2022/07/06 02:20:56;;;;;;;2.93;1.80;;;;;;;25.18;56.72;95026.41;5047696;28;20715;-63
2022/07/06 02:23:23;;;;;;;0.50;0.50;;;;;;;24.80;57.75;95026.91;5015941;28;20668;-65
2022/07/06 02:25:51;;;;;;;1.90;1.00;;;;;;;24.99;57.58;95029.75;5015139;28;20228;-64
2022/07/06 02:28:19;;;;;;;0.73;0.73;;;;;;;25.41;55.97;95029.31;5045656;28;20212;-64
2022/07/06 02:30:47;;;;;;;1.50;0.83;;;;;;;25.49;55.53;95025.69;5047923;28;20581;-63
2022/07/06 02:33:13;;;;;;;0.63;0.63;;;;;;;24.90;56.90;95026.44;5033656;28;20204;-65
2022/07/06 02:35:42;;;;;;;1.40;1.23;;;;;;;24.42;58.61;95031.94;5029910;28;20192;-63
2022/07/06 02:38:11;;;;;;;1.43;1.23;;;;;;;24.29;58.40;95017.00;5037654;28;20610;-64
2022/07/06 02:40:38;;;;;;;0.70;0.70;;;;;;;24.69;57.52;95035.75;5019836;28;20205;-64
2022/07/06 02:43:05;;;;;;;0.30;0.30;;;;;;;24.45;58.09;95033.16;5024512;28;20192;-65
2022/07/06 02:45:34;;;;;;;0.67;0.67;;;;;;;24.90;57.00;95025.66;5034138;28;20213;-64
2022/07/06 02:48:02;;;;;;;0.27;0.27;;;;;;;24.03;59.55;95030.00;5020925;28;20649;-63
2022/07/06 02:50:29;;;;;;;1.90;1.70;;;;;;;24.45;58.66;95025.88;5035916;28;20211;-64
2022/07/06 02:52:58;;;;;;;1.07;0.97;;;;;;;24.84;57.76;95038.50;5028454;28;20205;-64
2022/07/06 02:55:25;;;;;;;0.30;0.30;;;;;;;24.85;57.27;95034.69;5033604;28;20240;-63
2022/07/06 02:58:11;;;;;;;0.60;0.60;;;;;;;25.13;56.77;95041.97;5028171;28;20714;-64
2022/07/06 03:00:38;;;;;;;0.67;0.67;;;;;;;25.34;56.20;95037.16;5031806;28;20568;-64
2022/07/06 03:03:05;;;;;;;0.90;0.83;;;;;;;25.44;55.75;95028.59;5030778;28;20240;-63
2022/07/06 03:05:32;;;;;;;0.77;0.77;;;;;;;25.29;56.13;95021.31;5026312;28;20193;-62
2022/07/06 03:08:00;;;;;;;3.03;0.90;;;;;;;25.27;56.40;95023.56;5040114;28;20220;-63
2022/07/06 03:10:27;;;;;;;1.73;1.17;;;;;;;25.30;56.13;95025.53;5036674;28;20227;-62
2022/07/06 03:12:55;;;;;;;0.83;0.80;;;;;;;25.47;55.99;95022.56;5042806;28;20228;-64
2022/07/06 03:15:22;;;;;;;0.80;0.80;;;;;;;25.22;56.82;95031.88;5032053;28;20680;-63
2022/07/06 03:17:48;;;;;;;0.67;0.53;;;;;;;25.18;56.70;95034.47;5036115;28;20247;-64
2022/07/06 03:20:16;;;;;;;0.90;0.77;;;;;;;25.17;57.09;95035.56;5040115;28;20296;-64
2022/07/06 03:22:43;;;;;;;1.60;1.23;;;;;;;25.13;56.81;95044.66;5024919;28;20198;-63
2022/07/06 03:25:13;;;;;;;1.17;0.93;;;;;;;25.36;56.36;95042.94;5043155;28;20229;-63
2022/07/06 03:27:40;;;;;;;1.20;1.10;;;;;;;25.35;56.29;95044.06;5044890;28;20295;-64
2022/07/06 03:30:09;;;;;;;3.37;1.57;;;;;;;25.50;56.00;95032.59;5017319;28;20232;-64
2022/07/06 03:32:42;;;;;;;0.60;0.60;;;;;;;25.35;56.42;95044.84;5030770;28;20197;-63
2022/07/06 03:35:09;;;;;;;0.40;0.40;;;;;;;25.54;55.49;95057.63;5044594;28;20208;-64
2022/07/06 03:37:36;;;;;;;4.50;1.60;;;;;;;25.42;55.68;95058.47;5042373;28;20281;-63
2022/07/06 03:40:05;;;;;;;1.27;0.80;;;;;;;25.38;56.27;95057.63;5043042;28;20232;-63
2022/07/06 03:42:31;;;;;;;0.73;0.73;;;;;;;25.45;56.10;95057.00;5032990;28;20196;-64
2022/07/06 03:44:58;;;;;;;1.97;1.77;;;;;;;25.25;56.95;95064.13;5050854;28;20299;-62
2022/07/06 03:47:26;;;;;;;2.10;1.80;;;;;;;25.27;56.99;95061.91;5034036;28;20206;-65
2022/07/06 03:49:53;;;;;;;1.77;1.30;;;;;;;25.21;56.77;95057.09;5025904;28;20658;-64
2022/07/06 03:52:20;;;;;;;1.60;1.50;;;;;;;25.13;57.34;95063.44;5052016;28;20555;-63
2022/07/06 03:54:53;;;;;;;2.33;1.33;;;;;;;25.17;56.90;95061.59;5044882;28;20212;-63
2022/07/06 03:57:25;;;;;;;0.83;0.83;;;;;;;24.93;57.43;95067.84;5036470;28;20209;-63
2022/07/06 03:59:53;;;;;;;0.40;0.40;;;;;;;25.06;57.54;95056.75;5021466;28;20200;-62
2022/07/06 04:02:22;;;;;;;0.97;0.97;;;;;;;25.01;57.25;95057.00;5018274;28;20243;-64
2022/07/06 04:04:51;;;;;;;1.23;0.73;;;;;;;25.18;56.87;95063.16;5035133;28;20731;-63
2022/07/06 04:07:18;;;;;;;0.67;0.67;;;;;;;25.10;56.63;95062.19;5030334;28;20288;-64
2022/07/06 04:09:45;;;;;;;0.30;0.30;;;;;;;25.08;56.75;95059.88;5039237;28;20226;-63
2022/07/06 04:12:13;;;;;;;0.87;0.87;;;;;;;25.01;57.25;95067.72;5039285;28;20292;-64
2022/07/06 04:14:43;;;;;;;2.20;2.00;;;;;;;25.09;56.93;95066.78;5029959;28;20221;-64
2022/07/06 04:17:55;;;;;;;2.13;1.80;;;;;;;24.93;57.45;95070.53;5018833;28;20291;-65
2022/07/06 04:19:58;;;;;;;0.67;0.67;;;;;;;24.74;56.37;95071.16;5014621;28;20583;-65
2022/07/06 04:22:25;;;;;;;0.83;0.83;;;;;;;24.85;56.02;95066.88;5012338;28;20225;-64
2022/07/06 04:24:52;;;;;;;1.07;1.03;;;;;;;25.29;54.24;95070.34;5009111;28;20209;-65
2022/07/06 04:27:19;;;;;;;1.03;1.03;;;;;;;25.15;53.88;95055.78;5040100;28;20193;-64
2022/07/06 04:29:46;;;;;;;1.10;0.83;;;;;;;24.93;54.38;95071.31;5029214;28;20209;-64
2022/07/06 04:32:14;;;;;;;0.33;0.33;;;;;;;24.92;54.80;95069.78;5016207;28;20791;-66
2022/07/06 04:34:40;;;;;;;0.80;0.80;;;;;;;24.90;55.20;95076.59;5034115;28;20296;-65
2022/07/06 04:37:07;;;;;;;3.87;2.00;;;;;;;25.13;54.01;95076.84;5010417;28;20312;-65
2022/07/06 04:39:35;;;;;;;0.90;0.60;;;;;;;24.80;53.79;95088.56;5048471;28;20201;-63
2022/07/06 04:42:02;;;;;;;0.40;0.40;;;;;;;24.97;53.41;95080.25;5024588;28;20198;-64
2022/07/06 04:44:30;;;;;;;11.40;7.87;;;;;;;24.91;54.01;95095.00;5013038;28;20209;-64
2022/07/06 04:46:56;;;;;;;0.73;0.73;;;;;;;25.14;54.00;95097.16;5040615;28;20597;-63
2022/07/06 04:49:23;;;;;;;8.37;7.60;;;;;;;24.65;55.07;95099.19;5015213;28;20313;-63
2022/07/06 04:51:50;;;;;;;1.37;1.03;;;;;;;24.31;55.19;95108.50;5009253;28;20200;-64
2022/07/06 04:54:17;;;;;;;1.03;1.03;;;;;;;24.26;56.44;95116.75;5036651;28;20482;-65
2022/07/06 04:56:46;;;;;;;1.37;0.97;;;;;;;23.99;55.77;95114.72;5017902;28;20652;-67
2022/07/06 04:59:14;;;;;;;0.57;0.57;;;;;;;24.00;57.10;95116.28;5037654;28;20196;-63
2022/07/06 05:01:42;;;;;;;5.13;1.60;;;;;;;24.00;57.01;95122.47;5014299;28;20193;-63
2022/07/06 05:04:10;;;;;;;0.87;0.87;;;;;;;24.40;55.95;95122.56;5018584;28;20588;-67
2022/07/06 05:06:37;;;;;;;1.13;1.13;;;;;;;23.70;57.46;95144.34;5010832;28;20202;-63
2022/07/06 05:09:04;;;;;;;1.17;1.10;;;;;;;23.47;58.50;95129.78;5020298;28;20206;-66
2022/07/06 05:11:32;;;;;;;1.63;1.53;;;;;;;22.77;59.98;95126.13;5034323;28;20301;-65
2022/07/06 05:13:58;;;;;;;3.83;1.03;;;;;;;22.95;59.43;95122.25;5036709;28;20205;-64
2022/07/06 05:16:25;;;;;;;0.30;0.30;;;;;;;23.07;59.65;95132.97;5029526;28;20228;-64
2022/07/06 05:18:53;;;;;;;1.13;1.13;;;;;;;23.08;59.66;95139.88;5039963;28;20224;-63
2022/07/06 05:21:20;;;;;;;1.07;1.07;;;;;;;23.16;59.04;95134.81;5034122;28;20258;-65
2022/07/06 05:23:47;;;;;;;1.40;1.30;;;;;;;23.24;59.33;95149.97;5040266;28;20199;-65
2022/07/06 05:26:14;;;;;;;0.50;0.50;;;;;;;23.68;58.51;95141.22;5029949;28;20316;-64
2022/07/06 05:28:41;;;;;;;1.70;1.23;;;;;;;23.88;57.65;95140.38;5029016;28;20228;-64
2022/07/06 05:31:12;;;;;;;15.50;3.60;;;;;;;23.66;58.32;95148.81;5044656;28;20204;-64
2022/07/06 05:33:40;;;;;;;1.33;1.23;;;;;;;23.19;58.79;95132.25;5028630;28;20277;-64
2022/07/06 05:36:08;;;;;;;4.93;2.07;;;;;;;23.49;58.25;95151.66;5041462;28;20630;-65
2022/07/06 05:38:35;;;;;;;0.40;0.40;;;;;;;23.65;58.04;95152.59;5030305;28;20256;-65
2022/07/06 05:41:02;;;;;;;0.97;0.80;;;;;;;23.95;56.88;95145.97;5017155;28;20198;-66
2022/07/06 05:43:29;;;;;;;0.67;0.67;;;;;;;24.11;57.21;95154.91;5030403;28;20208;-63
2022/07/06 05:45:58;;;;;;;0.20;0.20;;;;;;;23.92;56.06;95155.41;5048863;28;20299;-66
2022/07/06 05:51:14;;;;;;;0.80;0.80;;;;;;;23.56;56.70;95154.56;5021852;28;20280;-62
2022/07/06 05:53:43;;;;;;;1.67;1.57;;;;;;;24.11;55.78;95165.63;5018699;28;20204;-65
2022/07/06 05:56:09;;;;;;;1.30;1.13;;;;;;;24.33;55.58;95162.50;5022015;28;20219;-65
2022/07/06 05:58:38;;;;;;;1.23;0.87;;;;;;;25.27;53.71;95149.63;5030507;28;20263;-65
2022/07/06 06:01:07;;;;;;;1.23;1.13;;;;;;;24.38;53.78;95140.84;5041635;28;20243;-64
2022/07/06 06:03:36;;;;;;;0.70;0.70;;;;;;;24.79;53.43;95155.91;5030105;28;20189;-66
2022/07/06 06:06:04;;;;;;;2.83;1.50;;;;;;;24.72;53.70;95164.53;5039326;28;20205;-66
2022/07/06 06:08:31;;;;;;;0.40;0.40;;;;;;;24.72;53.87;95158.38;5015645;28;20293;-65
2022/07/06 06:10:59;;;;;;;1.77;1.53;;;;;;;24.34;54.31;95158.72;5026852;28;20288;-67
2022/07/06 06:13:28;;;;;;;1.30;1.20;;;;;;;24.30;53.57;95157.84;5039711;28;20321;-67
2022/07/06 06:15:55;;;;;;;0.43;0.43;;;;;;;24.71;52.92;95162.97;5029532;28;20199;-65
2022/07/06 06:18:22;;;;;;;2.03;1.60;;;;;;;24.90;51.83;95157.78;5028312;28;20215;-65
2022/07/06 06:20:50;;;;;;;0.53;0.53;;;;;;;24.99;51.66;95147.72;5029707;28;20205;-66
2022/07/06 06:23:17;;;;;;;1.27;1.07;;;;;;;25.22;51.99;95160.59;5024166;28;20213;-66
2022/07/06 06:25:44;;;;;;;0.60;0.60;;;;;;;25.16;52.53;95156.59;5020576;28;20233;-67
2022/07/06 06:28:11;;;;;;;1.83;1.43;;;;;;;25.58;50.40;95152.41;5025597;28;20198;-66
2022/07/06 06:30:38;;;;;;;3.17;2.10;;;;;;;25.59;51.16;95144.03;5029823;28;20212;-65
2022/07/06 06:33:19;;;;;;;1.13;0.40;;;;;;;25.48;50.69;95131.44;5046866;28;20789;-65
2022/07/06 06:35:48;;;;;;;1.57;1.47;;;;;;;25.53;50.53;95147.31;5029204;28;20630;-65
2022/07/06 06:38:16;;;;;;;0.73;0.73;;;;;;;25.45;50.57;95148.22;5032033;28;20225;-67
2022/07/06 06:40:43;;;;;;;0.83;0.83;;;;;;;25.54;50.61;95143.50;5049615;28;20558;-64
2022/07/06 06:43:10;;;;;;;0.77;0.77;;;;;;;25.28;50.49;95140.44;5035394;28;20278;-65
2022/07/06 06:45:55;;;;;;;0.87;0.87;;;;;;;25.19;50.21;95145.19;5038118;28;20200;-66
2022/07/06 06:48:22;;;;;;;1.03;0.83;;;;;;;25.01;51.32;95145.47;5031060;28;20704;-65
2022/07/06 06:50:49;;;;;;;0.67;0.67;;;;;;;25.39;49.82;95149.59;5041243;28;20193;-66
2022/07/06 06:53:16;;;;;;;0.40;0.40;;;;;;;25.68;49.84;95141.16;5043817;28;20208;-65
2022/07/06 06:55:43;;;;;;;0.63;0.63;;;;;;;25.58;49.82;95141.69;5030246;28;20850;-67
2022/07/06 06:58:10;;;;;;;0.87;0.87;;;;;;;25.25;51.09;95149.19;5026564;28;20219;-66
2022/07/06 07:00:37;;;;;;;0.60;0.60;;;;;;;25.98;49.09;95139.66;5049324;28;20201;-65
2022/07/06 07:03:03;;;;;;;0.90;0.90;;;;;;;26.50;48.89;95134.78;5049239;28;20302;-67
2022/07/06 07:05:30;;;;;;;1.70;1.33;;;;;;;25.46;49.46;95129.09;5021652;28;20563;-64
2022/07/06 07:07:58;;;;;;;0.60;0.60;;;;;;;25.85;49.32;95143.53;5038357;28;20201;-67
2022/07/06 07:10:31;;;;;;;0.53;0.53;;;;;;;26.04;49.26;95140.97;5034109;28;20258;-67
2022/07/06 07:12:58;;;;;;;1.53;1.43;;;;;;;26.34;48.83;95136.72;5016616;28;20189;-69
2022/07/06 07:15:25;;;;;;;1.73;1.43;;;;;;;26.25;49.23;95128.06;5018502;28;20704;-72
2022/07/06 07:17:52;;;;;;;3.30;1.70;;;;;;;25.73;49.33;95139.00;5041895;28;20219;-70
2022/07/06 07:20:19;;;;;;;1.03;0.77;;;;;;;25.86;48.75;95142.41;5009105;28;20352;-66
2022/07/06 07:22:46;;;;;;;0.87;0.87;;;;;;;25.98;48.62;95136.97;5007957;28;20197;-66
2022/07/06 07:25:12;;;;;;;0.57;0.57;;;;;;;26.06;48.36;95130.66;5036766;28;20760;-66
2022/07/06 07:27:39;;;;;;;0.50;0.50;;;;;;;25.91;47.88;95139.47;5028522;28;20233;-63
2022/07/06 07:30:06;;;;;;;0.53;0.53;;;;;;;25.97;48.21;95130.03;5029518;28;20197;-68
2022/07/06 07:32:33;;;;;;;0.50;0.50;;;;;;;25.83;48.39;95137.72;5029285;28;20197;-67
2022/07/06 07:35:01;;;;;;;1.43;1.20;;;;;;;25.83;48.74;95132.38;5028606;28;20283;-64
2022/07/06 07:37:28;;;;;;;0.83;0.83;;;;;;;25.83;48.67;95122.41;5041826;28;20300;-63
2022/07/06 07:39:54;;;;;;;0.83;0.83;;;;;;;25.62;48.90;95131.84;5033430;28;20250;-62
2022/07/06 07:42:21;;;;;;;1.37;1.27;;;;;;;25.85;48.70;95124.75;5051875;28;20196;-66
2022/07/06 07:44:48;;;;;;;1.83;1.13;;;;;;;26.38;47.88;95129.53;5043357;28;20672;-67
2022/07/06 07:47:15;;;;;;;1.00;0.87;;;;;;;25.84;48.97;95133.91;5032230;28;20213;-66
2022/07/06 07:49:42;;;;;;;2.20;1.90;;;;;;;25.65;49.03;95137.28;5024979;28;20680;-64
2022/07/06 07:52:09;;;;;;;1.03;0.97;;;;;;;26.03;48.69;95136.69;5012651;28;20200;-68
2022/07/06 07:54:36;;;;;;;0.60;0.60;;;;;;;26.58;48.08;95125.75;5022143;28;20193;-67
2022/07/06 07:57:07;;;;;;;1.27;1.20;;;;;;;27.01;47.71;95122.84;5019409;28;20189;-67
2022/07/06 07:59:34;;;;;;;1.17;1.07;;;;;;;26.71;46.34;95119.16;5031880;28;20223;-68
2022/07/06 08:02:01;;;;;;;1.13;1.03;;;;;;;26.77;46.95;95122.31;5035918;28;20196;-67
2022/07/06 08:04:28;;;;;;;0.50;0.50;;;;;;;26.90;45.77;95127.25;5051608;28;20279;-67
2022/07/06 08:06:55;;;;;;;0.73;0.73;;;;;;;26.66;46.49;95127.44;5019469;28;20201;-64
2022/07/06 08:09:27;;;;;;;1.73;1.47;;;;;;;26.40;46.47;95119.22;5024569;28;20181;-67
2022/07/06 08:11:54;;;;;;;0.73;0.73;;;;;;;26.55;45.68;95121.06;5022235;28;20201;-69
2022/07/06 08:17:06;;;;;;;0.60;0.60;;;;;;;27.07;45.16;95125.25;5040776;28;20192;-69
2022/07/06 08:19:33;;;;;;;0.97;0.97;;;;;;;27.08;45.69;95137.59;5014946;28;20317;-68
2022/07/06 08:22:00;;;;;;;0.50;0.50;;;;;;;27.13;44.73;95132.72;5011485;28;20617;-66
2022/07/06 08:24:28;;;;;;;0.60;0.60;;;;;;;27.01;45.00;95122.84;5040764;28;20204;-67
2022/07/06 08:26:58;;;;;;;1.07;1.00;;;;;;;27.33;45.73;95133.50;5024143;28;20233;-68
2022/07/06 08:29:25;;;;;;;1.30;1.20;;;;;;;27.30;45.18;95123.44;5011704;28;20206;-69
2022/07/06 08:31:53;;;;;;;1.17;1.07;;;;;;;27.14;44.88;95126.19;5025251;28;20201;-68
2022/07/06 08:34:23;;;;;;;1.57;1.30;;;;;;;26.98;45.05;95123.56;5023515;28;20212;-69
2022/07/06 08:36:56;;;;;;;0.70;0.70;;;;;;;27.64;44.70;95127.94;5025401;28;20208;-67
2022/07/06 08:39:23;;;;;;;0.50;0.50;;;;;;;27.93;43.69;95124.63;5023281;28;20922;-68
2022/07/06 08:41:51;;;;;;;0.90;0.90;;;;;;;28.58;43.44;95123.38;5045447;28;20337;-70
2022/07/06 08:44:18;;;;;;;0.73;0.73;;;;;;;28.43;42.41;95120.81;5041757;28;20672;-63
2022/07/06 08:46:45;;;;;;;0.67;0.67;;;;;;;28.76;42.01;95118.22;5020553;28;20209;-69
2022/07/06 08:49:15;;;;;;;0.77;0.77;;;;;;;28.61;41.86;95105.72;5031276;28;20293;-67
2022/07/06 08:51:43;;;;;;;1.57;0.93;;;;;;;28.52;42.01;95108.66;5027791;28;20208;-69
2022/07/06 08:54:11;;;;;;;1.97;1.80;;;;;;;28.27;43.34;95118.25;5019055;28;20247;-67
2022/07/06 08:56:39;;;;;;;0.73;0.73;;;;;;;27.47;44.38;95120.31;5019968;28;20192;-66
2022/07/06 08:59:14;;;;;;;0.57;0.57;;;;;;;27.68;44.13;95123.41;5040297;28;20424;-66
2022/07/06 09:01:44;;;;;;;3.53;1.97;;;;;;;27.47;44.36;95120.31;5047544;28;20200;-62
2022/07/06 09:04:12;;;;;;;3.60;1.77;;;;;;;27.77;43.80;95126.66;5050756;28;20580;-66
2022/07/06 09:06:43;;;;;;;0.80;0.80;;;;;;;28.35;42.72;95122.63;5022483;28;20210;-66
2022/07/06 09:09:09;;;;;;;0.50;0.50;;;;;;;28.30;42.16;95120.25;5022805;28;20202;-63
2022/07/06 09:11:37;;;;;;;0.50;0.50;;;;;;;27.67;43.69;95119.16;5043115;28;20220;-66
2022/07/06 09:14:04;;;;;;;2.07;1.53;;;;;;;28.20;42.23;95123.53;5017087;28;20580;-63
2022/07/06 09:16:32;;;;;;;1.07;0.93;;;;;;;28.46;41.94;95114.69;5022471;28;20273;-64
2022/07/06 09:19:07;;;;;;;0.90;0.90;;;;;;;27.79;43.31;95116.31;5024454;28;20232;-66
2022/07/06 09:21:36;;;;;;;1.33;1.20;;;;;;;27.39;44.44;95121.34;5029624;28;20764;-66
2022/07/06 09:24:10;;;;;;;1.23;1.13;;;;;;;27.65;44.21;95110.66;5042515;28;20200;-70
2022/07/06 09:26:38;;;;;;;0.53;0.53;;;;;;;27.54;44.28;95117.75;5017205;28;20271;-63
2022/07/06 09:29:06;;;;;;;1.23;1.10;;;;;;;27.42;44.78;95126.78;5032160;28;20675;-62
2022/07/06 09:31:33;;;;;;;1.67;1.50;;;;;;;28.15;43.83;95120.38;5013298;28;20217;-68
2022/07/06 09:34:05;;;;;;;0.83;0.83;;;;;;;27.89;44.57;95116.47;5010794;28;20206;-68
2022/07/06 09:36:49;;;;;;;3.20;1.40;;;;;;;28.10;43.97;95124.16;5033332;28;20201;-66
2022/07/06 09:39:26;;;;;;;2.23;1.77;;;;;;;28.62;42.80;95124.22;5029895;28;20224;-67
2022/07/06 09:41:55;;;;;;;1.27;1.07;;;;;;;28.11;43.34;95123.00;5011664;28;20615;-63
2022/07/06 09:44:28;;;;;;;1.47;1.40;;;;;;;28.12;43.19;95110.34;5032191;28;20250;-69
2022/07/06 09:47:09;;;;;;;1.00;0.97;;;;;;;28.37;43.43;95109.56;5022003;28;20241;-67
2022/07/06 09:49:38;;;;;;;2.00;1.20;;;;;;;28.24;43.90;95102.81;5025787;28;20292;-66
2022/07/06 09:52:08;;;;;;;0.70;0.70;;;;;;;27.38;44.28;95092.84;5028503;28;20973;-63
2022/07/06 09:54:38;;;;;;;0.93;0.80;;;;;;;28.09;43.30;95101.03;5040362;28;20675;-67
2022/07/06 09:57:06;;;;;;;3.70;1.37;;;;;;;27.91;43.44;95099.94;5023493;28;20192;-63
2022/07/06 09:59:36;;;;;;;1.77;0.80;;;;;;;28.32;43.33;95101.78;5049039;28;20881;-64
2022/07/06 10:02:05;;;;;;;1.17;1.07;;;;;;;28.96;42.76;95095.38;5016514;28;20189;-67
2022/07/06 10:04:33;;;;;;;2.73;1.43;;;;;;;29.05;41.78;95105.91;5029461;28;20200;-65
2022/07/06 10:07:00;;;;;;;1.00;1.00;;;;;;;28.40;42.68;95100.75;5029297;28;20212;-65
2022/07/06 10:09:29;;;;;;;1.33;1.23;;;;;;;29.24;41.94;95097.66;5015450;28;20648;-70
2022/07/06 10:12:01;;;;;;;1.40;1.30;;;;;;;29.43;41.49;95090.19;5038426;28;20219;-68
2022/07/06 10:14:32;;;;;;;2.13;2.00;;;;;;;28.92;41.76;95095.31;5049082;28;20200;-62
2022/07/06 10:17:01;;;;;;;2.37;2.07;;;;;;;29.51;40.45;95088.31;5030583;28;20209;-69
2022/07/06 10:19:30;;;;;;;1.80;1.60;;;;;;;29.24;41.17;95093.03;5009746;28;20260;-64
2022/07/06 10:22:00;;;;;;;1.63;1.53;;;;;;;28.83;41.33;95092.13;5026575;28;20204;-66
2022/07/06 10:24:28;;;;;;;1.00;1.00;;;;;;;28.85;40.90;95089.84;5047066;28;20667;-65
2022/07/06 10:26:56;;;;;;;3.27;1.20;;;;;;;28.53;41.52;95088.66;5009670;28;20704;-66
2022/07/06 10:29:24;;;;;;;1.00;0.90;;;;;;;29.33;41.20;95081.94;5036682;28;20219;-65
2022/07/06 10:31:54;;;;;;;1.33;1.13;;;;;;;29.09;41.38;95077.03;5016079;28;20667;-66
2022/07/06 10:34:21;;;;;;;2.37;1.40;;;;;;;28.98;41.52;95081.53;5017231;28;20704;-65
2022/07/06 10:36:51;;;;;;;1.80;1.27;;;;;;;29.61;40.22;95074.94;5023826;28;20256;-66
2022/07/06 10:42:43;;;;;;;1.43;1.33;;;;;;;29.89;39.27;95074.41;5018523;28;20196;-64
2022/07/06 10:45:12;;;;;;;4.17;2.17;;;;;;;30.04;38.94;95073.38;5046704;28;20200;-66
2022/07/06 10:47:40;;;;;;;3.53;1.73;;;;;;;30.11;38.67;95067.28;5029284;28;20197;-69
2022/07/06 10:50:08;;;;;;;0.83;0.80;;;;;;;30.43;38.14;95074.50;5009642;28;20210;-65
2022/07/06 10:52:57;;;;;;;1.07;1.07;;;;;;;31.02;38.32;95072.50;5009571;28;20256;-68
2022/07/06 10:55:31;;;;;;;1.67;1.57;;;;;;;31.13;36.79;95074.06;5031097;28;20288;-63
2022/07/06 10:57:58;;;;;;;1.33;1.23;;;;;;;30.20;38.18;95075.84;5009158;28;20317;-64
2022/07/06 11:00:24;;;;;;;1.70;1.57;;;;;;;29.68;38.78;95072.28;5021678;28;20589;-66
2022/07/06 11:02:51;;;;;;;1.47;1.37;;;;;;;29.37;38.69;95080.06;5048965;28;20269;-64
2022/07/06 11:05:40;;;;;;;0.70;0.70;;;;;;;29.84;39.93;95072.06;5039939;28;20298;-63
2022/07/06 11:08:56;;;;;;;1.47;1.30;;;;;;;30.49;37.95;95067.56;5016073;28;20672;-68
2022/07/06 11:11:41;;;;;;;1.50;1.40;;;;;;;29.56;38.63;95074.50;5050430;28;20254;-63
2022/07/06 11:14:10;;;;;;;1.47;1.37;;;;;;;29.54;39.21;95076.78;5024776;28;20672;-62
2022/07/06 11:16:37;;;;;;;0.90;0.90;;;;;;;29.25;38.98;95064.13;5046606;28;20216;-61
2022/07/06 11:19:09;;;;;;;2.50;1.87;;;;;;;29.82;37.89;95066.25;5045997;28;20216;-63
2022/07/06 11:21:48;;;;;;;1.37;1.00;;;;;;;29.44;38.96;95066.63;5039189;28;20209;-63
2022/07/06 11:24:20;;;;;;;1.13;1.13;;;;;;;30.12;38.18;95069.59;5038996;28;20205;-67
2022/07/06 11:26:49;;;;;;;2.47;1.53;;;;;;;30.39;37.09;95065.56;5032310;28;20610;-63
2022/07/06 11:29:21;;;;;;;1.17;1.17;;;;;;;30.00;38.45;95055.63;5045479;28;20196;-65
2022/07/06 11:31:50;;;;;;;2.50;1.30;;;;;;;30.57;38.13;95055.63;5019101;28;20670;-67
2022/07/06 11:34:22;;;;;;;1.20;1.10;;;;;;;30.15;37.95;95052.63;5044731;28;20200;-64
2022/07/06 11:37:01;;;;;;;2.87;1.57;;;;;;;29.83;39.04;95051.63;5052210;28;20196;-67
2022/07/06 11:39:40;;;;;;;1.47;1.37;;;;;;;29.26;38.96;95055.66;5051860;28;20224;-64
2022/07/06 11:42:09;;;;;;;1.33;1.27;;;;;;;29.15;39.12;95051.28;5025750;28;20227;-65
2022/07/06 11:44:37;;;;;;;1.20;1.10;;;;;;;29.31;39.67;95047.22;5051877;28;20199;-66
2022/07/06 11:47:06;;;;;;;2.40;2.00;;;;;;;29.32;38.63;95042.63;5046683;28;20243;-63
2022/07/06 11:49:34;;;;;;;1.20;1.10;;;;;;;29.68;37.47;95033.69;5020553;28;20214;-64
2022/07/06 11:52:10;;;;;;;1.47;1.37;;;;;;;29.17;37.41;95040.91;5040051;28;20592;-65